sensor_id;sensor_type;location;lat;lon;timestamp;temperature;humidity
81800;DHT22;71195;52.528;5.704;2024-03-02T00:02:17;10.10;59.30
81800;DHT22;71195;52.528;5.704;2024-03-02T00:04:46;10.10;59.30
81800;DHT22;71195;52.528;5.704;2024-03-02T00:07:15;10.10;59.30
81800;DHT22;71195;52.528;5.704;2024-03-02T00:09:45;10.10;59.40
81800;DHT22;71195;52.528;5.704;2024-03-02T00:12:15;10.10;59.30
81800;DHT22;71195;52.528;5.704;2024-03-02T00:14:45;10.10;59.40
81800;DHT22;71195;52.528;5.704;2024-03-02T00:17:21;10.10;59.30
81800;DHT22;71195;52.528;5.704;2024-03-02T00:19:53;10.10;59.30
81800;DHT22;71195;52.528;5.704;2024-03-02T00:22:22;10.10;59.30
81800;DHT22;71195;52.528;5.704;2024-03-02T00:24:51;10.10;59.40
81800;DHT22;71195;52.528;5.704;2024-03-02T00:27:21;10.20;59.30
81800;DHT22;71195;52.528;5.704;2024-03-02T00:29:47;10.20;59.20
81800;DHT22;71195;52.528;5.704;2024-03-02T00:32:19;10.20;59.30
81800;DHT22;71195;52.528;5.704;2024-03-02T00:34:48;10.20;59.30
81800;DHT22;71195;52.528;5.704;2024-03-02T00:37:18;10.30;59.30
81800;DHT22;71195;52.528;5.704;2024-03-02T00:39:49;10.30;59.20
81800;DHT22;71195;52.528;5.704;2024-03-02T00:42:19;10.30;59.20
81800;DHT22;71195;52.528;5.704;2024-03-02T00:44:48;10.30;59.30
81800;DHT22;71195;52.528;5.704;2024-03-02T00:47:19;10.40;59.20
81800;DHT22;71195;52.528;5.704;2024-03-02T00:49:49;10.30;59.20
81800;DHT22;71195;52.528;5.704;2024-03-02T00:52:18;10.40;59.20
81800;DHT22;71195;52.528;5.704;2024-03-02T00:54:47;10.40;59.30
81800;DHT22;71195;52.528;5.704;2024-03-02T00:57:16;10.40;59.30
81800;DHT22;71195;52.528;5.704;2024-03-02T00:59:46;10.40;59.20
81800;DHT22;71195;52.528;5.704;2024-03-02T01:02:15;10.40;59.30
81800;DHT22;71195;52.528;5.704;2024-03-02T01:04:48;10.50;59.30
81800;DHT22;71195;52.528;5.704;2024-03-02T01:07:18;10.50;59.30
81800;DHT22;71195;52.528;5.704;2024-03-02T01:09:47;10.50;59.30
81800;DHT22;71195;52.528;5.704;2024-03-02T01:12:16;10.50;59.30
81800;DHT22;71195;52.528;5.704;2024-03-02T01:14:45;10.50;59.20
81800;DHT22;71195;52.528;5.704;2024-03-02T01:17:14;10.50;59.30
81800;DHT22;71195;52.528;5.704;2024-03-02T01:19:44;10.60;59.30
81800;DHT22;71195;52.528;5.704;2024-03-02T01:22:15;10.60;59.20
81800;DHT22;71195;52.528;5.704;2024-03-02T01:24:51;10.60;59.20
81800;DHT22;71195;52.528;5.704;2024-03-02T01:27:20;10.70;59.10
81800;DHT22;71195;52.528;5.704;2024-03-02T01:29:49;10.70;59.00
81800;DHT22;71195;52.528;5.704;2024-03-02T01:32:18;10.70;59.10
81800;DHT22;71195;52.528;5.704;2024-03-02T01:34:47;10.70;59.00
81800;DHT22;71195;52.528;5.704;2024-03-02T01:37:19;10.80;59.00
81800;DHT22;71195;52.528;5.704;2024-03-02T01:39:48;10.80;59.00
81800;DHT22;71195;52.528;5.704;2024-03-02T01:42:18;10.80;59.10
81800;DHT22;71195;52.528;5.704;2024-03-02T01:44:47;10.80;59.10
81800;DHT22;71195;52.528;5.704;2024-03-02T01:47:16;10.80;59.20
81800;DHT22;71195;52.528;5.704;2024-03-02T01:49:46;10.70;59.20
81800;DHT22;71195;52.528;5.704;2024-03-02T01:52:15;10.70;59.20
81800;DHT22;71195;52.528;5.704;2024-03-02T01:54:47;10.70;59.30
81800;DHT22;71195;52.528;5.704;2024-03-02T01:57:16;10.70;59.50
81800;DHT22;71195;52.528;5.704;2024-03-02T01:59:46;10.70;59.50
81800;DHT22;71195;52.528;5.704;2024-03-02T02:02:17;10.60;59.50
81800;DHT22;71195;52.528;5.704;2024-03-02T02:04:46;10.70;59.60
81800;DHT22;71195;52.528;5.704;2024-03-02T02:07:15;10.70;59.60
81800;DHT22;71195;52.528;5.704;2024-03-02T02:09:47;10.60;59.60
81800;DHT22;71195;52.528;5.704;2024-03-02T02:12:16;10.60;59.70
81800;DHT22;71195;52.528;5.704;2024-03-02T02:14:49;10.60;59.70
81800;DHT22;71195;52.528;5.704;2024-03-02T02:17:19;10.60;59.70
81800;DHT22;71195;52.528;5.704;2024-03-02T02:19:48;10.60;59.70
81800;DHT22;71195;52.528;5.704;2024-03-02T02:22:20;10.60;59.70
81800;DHT22;71195;52.528;5.704;2024-03-02T02:24:49;10.50;59.80
81800;DHT22;71195;52.528;5.704;2024-03-02T02:27:18;10.50;59.80
81800;DHT22;71195;52.528;5.704;2024-03-02T02:29:47;10.50;59.80
81800;DHT22;71195;52.528;5.704;2024-03-02T02:32:17;10.50;59.80
81800;DHT22;71195;52.528;5.704;2024-03-02T02:34:46;10.40;59.90
81800;DHT22;71195;52.528;5.704;2024-03-02T02:37:15;10.40;60.00
81800;DHT22;71195;52.528;5.704;2024-03-02T02:39:47;10.40;60.00
81800;DHT22;71195;52.528;5.704;2024-03-02T02:42:16;10.40;60.00
81800;DHT22;71195;52.528;5.704;2024-03-02T02:44:45;10.40;60.00
81800;DHT22;71195;52.528;5.704;2024-03-02T02:47:14;10.40;60.00
81800;DHT22;71195;52.528;5.704;2024-03-02T02:49:43;10.30;60.00
81800;DHT22;71195;52.528;5.704;2024-03-02T02:52:12;10.30;60.00
81800;DHT22;71195;52.528;5.704;2024-03-02T02:54:42;10.30;60.10
81800;DHT22;71195;52.528;5.704;2024-03-02T02:57:13;10.30;60.10
81800;DHT22;71195;52.528;5.704;2024-03-02T02:59:42;10.20;60.10
81800;DHT22;71195;52.528;5.704;2024-03-02T03:02:12;10.20;60.20
81800;DHT22;71195;52.528;5.704;2024-03-02T03:04:41;10.20;60.20
81800;DHT22;71195;52.528;5.704;2024-03-02T03:07:10;10.10;60.40
81800;DHT22;71195;52.528;5.704;2024-03-02T03:09:39;10.10;60.40
81800;DHT22;71195;52.528;5.704;2024-03-02T03:12:08;10.10;60.50
81800;DHT22;71195;52.528;5.704;2024-03-02T03:14:40;10.00;60.50
81800;DHT22;71195;52.528;5.704;2024-03-02T03:17:09;10.00;60.60
81800;DHT22;71195;52.528;5.704;2024-03-02T03:19:39;10.00;60.60
81800;DHT22;71195;52.528;5.704;2024-03-02T03:22:08;10.00;60.60
81800;DHT22;71195;52.528;5.704;2024-03-02T03:24:37;10.00;60.70
81800;DHT22;71195;52.528;5.704;2024-03-02T03:27:07;9.80;60.80
81800;DHT22;71195;52.528;5.704;2024-03-02T03:29:38;9.80;60.80
81800;DHT22;71195;52.528;5.704;2024-03-02T03:32:10;9.80;60.90
81800;DHT22;71195;52.528;5.704;2024-03-02T03:34:39;9.80;60.90
81800;DHT22;71195;52.528;5.704;2024-03-02T03:37:09;9.80;61.00
81800;DHT22;71195;52.528;5.704;2024-03-02T03:39:38;9.80;61.10
81800;DHT22;71195;52.528;5.704;2024-03-02T03:42:07;9.70;61.10
81800;DHT22;71195;52.528;5.704;2024-03-02T03:44:36;9.70;61.30
81800;DHT22;71195;52.528;5.704;2024-03-02T03:47:06;9.60;61.30
81800;DHT22;71195;52.528;5.704;2024-03-02T03:49:38;9.50;61.50
81800;DHT22;71195;52.528;5.704;2024-03-02T03:52:07;9.50;61.50
81800;DHT22;71195;52.528;5.704;2024-03-02T03:54:36;9.50;61.50
81800;DHT22;71195;52.528;5.704;2024-03-02T03:57:06;9.50;61.60
81800;DHT22;71195;52.528;5.704;2024-03-02T03:59:35;9.40;61.60
81800;DHT22;71195;52.528;5.704;2024-03-02T04:02:04;9.40;61.60
81800;DHT22;71195;52.528;5.704;2024-03-02T04:04:34;9.30;61.90
81800;DHT22;71195;52.528;5.704;2024-03-02T04:07:06;9.30;61.90
81800;DHT22;71195;52.528;5.704;2024-03-02T04:09:35;9.30;61.90
81800;DHT22;71195;52.528;5.704;2024-03-02T04:12:05;9.30;61.90
81800;DHT22;71195;52.528;5.704;2024-03-02T04:14:34;9.20;61.80
81800;DHT22;71195;52.528;5.704;2024-03-02T04:17:04;9.20;61.90
81800;DHT22;71195;52.528;5.704;2024-03-02T04:19:33;9.20;61.90
81800;DHT22;71195;52.528;5.704;2024-03-02T04:22:02;9.20;62.00
81800;DHT22;71195;52.528;5.704;2024-03-02T04:24:34;9.20;62.00
81800;DHT22;71195;52.528;5.704;2024-03-02T04:27:03;9.20;62.10
81800;DHT22;71195;52.528;5.704;2024-03-02T04:29:32;9.10;62.20
81800;DHT22;71195;52.528;5.704;2024-03-02T04:32:01;9.10;62.20
81800;DHT22;71195;52.528;5.704;2024-03-02T04:34:31;9.10;62.20
81800;DHT22;71195;52.528;5.704;2024-03-02T04:37:00;9.10;62.20
81800;DHT22;71195;52.528;5.704;2024-03-02T04:39:29;9.00;62.20
81800;DHT22;71195;52.528;5.704;2024-03-02T04:42:01;9.10;62.20
81800;DHT22;71195;52.528;5.704;2024-03-02T04:44:30;9.00;62.30
81800;DHT22;71195;52.528;5.704;2024-03-02T04:46:59;9.00;62.30
81800;DHT22;71195;52.528;5.704;2024-03-02T04:49:28;9.00;62.30
81800;DHT22;71195;52.528;5.704;2024-03-02T04:51:57;9.00;62.40
81800;DHT22;71195;52.528;5.704;2024-03-02T04:54:26;9.00;62.40
81800;DHT22;71195;52.528;5.704;2024-03-02T04:56:55;9.00;62.50
81800;DHT22;71195;52.528;5.704;2024-03-02T04:59:27;9.00;62.40
81800;DHT22;71195;52.528;5.704;2024-03-02T05:01:57;9.00;62.50
81800;DHT22;71195;52.528;5.704;2024-03-02T05:04:26;9.00;62.50
81800;DHT22;71195;52.528;5.704;2024-03-02T05:06:55;9.00;62.50
81800;DHT22;71195;52.528;5.704;2024-03-02T05:09:24;8.90;62.50
81800;DHT22;71195;52.528;5.704;2024-03-02T05:11:53;8.90;62.50
81800;DHT22;71195;52.528;5.704;2024-03-02T05:14:45;8.90;62.60
81800;DHT22;71195;52.528;5.704;2024-03-02T05:17:14;8.90;62.50
81800;DHT22;71195;52.528;5.704;2024-03-02T05:19:43;8.90;62.50
81800;DHT22;71195;52.528;5.704;2024-03-02T05:22:12;8.90;62.50
81800;DHT22;71195;52.528;5.704;2024-03-02T05:24:42;8.90;62.60
81800;DHT22;71195;52.528;5.704;2024-03-02T05:27:12;8.90;62.50
81800;DHT22;71195;52.528;5.704;2024-03-02T05:29:43;8.90;62.60
81800;DHT22;71195;52.528;5.704;2024-03-02T05:32:13;8.80;62.50
81800;DHT22;71195;52.528;5.704;2024-03-02T05:34:42;8.80;62.60
81800;DHT22;71195;52.528;5.704;2024-03-02T05:37:11;8.80;62.60
81800;DHT22;71195;52.528;5.704;2024-03-02T05:39:40;8.80;62.70
81800;DHT22;71195;52.528;5.704;2024-03-02T05:42:10;8.70;62.70
81800;DHT22;71195;52.528;5.704;2024-03-02T05:44:39;8.60;62.70
81800;DHT22;71195;52.528;5.704;2024-03-02T05:47:11;8.60;62.80
81800;DHT22;71195;52.528;5.704;2024-03-02T05:49:40;8.60;62.80
81800;DHT22;71195;52.528;5.704;2024-03-02T05:52:09;8.60;62.80
81800;DHT22;71195;52.528;5.704;2024-03-02T05:54:38;8.60;62.90
81800;DHT22;71195;52.528;5.704;2024-03-02T05:57:07;8.50;62.90
81800;DHT22;71195;52.528;5.704;2024-03-02T05:59:58;8.50;62.90
81800;DHT22;71195;52.528;5.704;2024-03-02T06:02:30;8.50;62.90
81800;DHT22;71195;52.528;5.704;2024-03-02T06:04:59;8.50;63.00
81800;DHT22;71195;52.528;5.704;2024-03-02T06:07:28;8.50;62.90
81800;DHT22;71195;52.528;5.704;2024-03-02T06:09:57;8.40;62.90
81800;DHT22;71195;52.528;5.704;2024-03-02T06:12:27;8.50;62.80
81800;DHT22;71195;52.528;5.704;2024-03-02T06:14:56;8.40;62.90
81800;DHT22;71195;52.528;5.704;2024-03-02T06:17:25;8.40;62.80
81800;DHT22;71195;52.528;5.704;2024-03-02T06:19:57;8.40;62.90
81800;DHT22;71195;52.528;5.704;2024-03-02T06:22:26;8.30;62.80
81800;DHT22;71195;52.528;5.704;2024-03-02T06:24:55;8.30;62.90
81800;DHT22;71195;52.528;5.704;2024-03-02T06:27:24;8.30;62.90
81800;DHT22;71195;52.528;5.704;2024-03-02T06:29:53;8.30;63.00
81800;DHT22;71195;52.528;5.704;2024-03-02T06:32:22;8.30;63.00
81800;DHT22;71195;52.528;5.704;2024-03-02T06:34:52;8.20;63.00
81800;DHT22;71195;52.528;5.704;2024-03-02T06:37:23;8.20;62.90
81800;DHT22;71195;52.528;5.704;2024-03-02T06:39:52;8.30;62.90
81800;DHT22;71195;52.528;5.704;2024-03-02T06:42:21;8.20;62.90
81800;DHT22;71195;52.528;5.704;2024-03-02T06:44:51;8.20;62.90
81800;DHT22;71195;52.528;5.704;2024-03-02T06:47:20;8.20;62.90
81800;DHT22;71195;52.528;5.704;2024-03-02T06:49:49;8.20;62.90
81800;DHT22;71195;52.528;5.704;2024-03-02T06:52:19;8.20;62.90
81800;DHT22;71195;52.528;5.704;2024-03-02T06:54:51;8.20;62.90
81800;DHT22;71195;52.528;5.704;2024-03-02T06:57:20;8.20;62.90
81800;DHT22;71195;52.528;5.704;2024-03-02T06:59:50;8.20;62.80
81800;DHT22;71195;52.528;5.704;2024-03-02T07:02:23;8.20;62.80
81800;DHT22;71195;52.528;5.704;2024-03-02T07:04:53;8.30;62.80
81800;DHT22;71195;52.528;5.704;2024-03-02T07:07:22;8.30;62.70
81800;DHT22;71195;52.528;5.704;2024-03-02T07:09:53;8.30;62.80
81800;DHT22;71195;52.528;5.704;2024-03-02T07:12:23;8.30;62.80
81800;DHT22;71195;52.528;5.704;2024-03-02T07:14:52;8.40;62.70
81800;DHT22;71195;52.528;5.704;2024-03-02T07:17:51;8.40;62.60
81800;DHT22;71195;52.528;5.704;2024-03-02T07:20:20;8.50;62.60
81800;DHT22;71195;52.528;5.704;2024-03-02T07:22:49;8.50;62.60
81800;DHT22;71195;52.528;5.704;2024-03-02T07:25:21;8.50;62.60
81800;DHT22;71195;52.528;5.704;2024-03-02T07:27:51;8.50;62.60
81800;DHT22;71195;52.528;5.704;2024-03-02T07:30:20;8.50;62.60
81800;DHT22;71195;52.528;5.704;2024-03-02T07:32:50;8.50;62.60
81800;DHT22;71195;52.528;5.704;2024-03-02T07:35:19;8.50;62.60
81800;DHT22;71195;52.528;5.704;2024-03-02T07:37:52;8.50;62.60
81800;DHT22;71195;52.528;5.704;2024-03-02T07:40:25;8.50;62.60
81800;DHT22;71195;52.528;5.704;2024-03-02T07:42:55;8.50;62.60
81800;DHT22;71195;52.528;5.704;2024-03-02T07:45:24;8.50;62.70
81800;DHT22;71195;52.528;5.704;2024-03-02T07:47:53;8.50;62.60
81800;DHT22;71195;52.528;5.704;2024-03-02T07:50:22;8.50;62.70
81800;DHT22;71195;52.528;5.704;2024-03-02T07:52:51;8.60;62.70
81800;DHT22;71195;52.528;5.704;2024-03-02T07:55:20;8.60;62.70
81800;DHT22;71195;52.528;5.704;2024-03-02T07:57:52;8.60;62.60
81800;DHT22;71195;52.528;5.704;2024-03-02T08:00:22;8.60;62.70
81800;DHT22;71195;52.528;5.704;2024-03-02T08:02:52;8.60;62.70
81800;DHT22;71195;52.528;5.704;2024-03-02T08:05:21;8.60;62.60
81800;DHT22;71195;52.528;5.704;2024-03-02T08:07:50;8.60;62.60
81800;DHT22;71195;52.528;5.704;2024-03-02T08:10:20;8.70;62.50
81800;DHT22;71195;52.528;5.704;2024-03-02T08:12:52;8.80;62.50
81800;DHT22;71195;52.528;5.704;2024-03-02T08:15:21;8.90;62.50
81800;DHT22;71195;52.528;5.704;2024-03-02T08:17:50;8.90;62.40
81800;DHT22;71195;52.528;5.704;2024-03-02T08:20:19;9.00;62.20
81800;DHT22;71195;52.528;5.704;2024-03-02T08:22:49;9.00;62.10
81800;DHT22;71195;52.528;5.704;2024-03-02T08:25:21;9.20;62.00
81800;DHT22;71195;52.528;5.704;2024-03-02T08:27:53;9.20;61.90
81800;DHT22;71195;52.528;5.704;2024-03-02T08:30:22;9.20;61.90
81800;DHT22;71195;52.528;5.704;2024-03-02T08:32:52;9.30;61.80
81800;DHT22;71195;52.528;5.704;2024-03-02T08:35:21;9.40;61.70
81800;DHT22;71195;52.528;5.704;2024-03-02T08:37:51;9.50;61.60
81800;DHT22;71195;52.528;5.704;2024-03-02T08:40:20;9.60;61.70
81800;DHT22;71195;52.528;5.704;2024-03-02T08:42:52;9.60;61.50
81800;DHT22;71195;52.528;5.704;2024-03-02T08:45:21;9.70;61.40
81800;DHT22;71195;52.528;5.704;2024-03-02T08:47:50;9.80;61.40
81800;DHT22;71195;52.528;5.704;2024-03-02T08:50:19;10.00;61.20
81800;DHT22;71195;52.528;5.704;2024-03-02T08:52:48;10.00;61.20
81800;DHT22;71195;52.528;5.704;2024-03-02T08:55:17;10.20;61.10
81800;DHT22;71195;52.528;5.704;2024-03-02T08:57:47;10.30;61.10
81800;DHT22;71195;52.528;5.704;2024-03-02T09:00:20;10.30;60.90
81800;DHT22;71195;52.528;5.704;2024-03-02T09:02:49;10.40;60.90
81800;DHT22;71195;52.528;5.704;2024-03-02T09:05:18;10.50;60.80
81800;DHT22;71195;52.528;5.704;2024-03-02T09:07:47;10.60;60.70
81800;DHT22;71195;52.528;5.704;2024-03-02T09:10:16;10.70;60.70
81800;DHT22;71195;52.528;5.704;2024-03-02T09:12:45;10.70;60.50
81800;DHT22;71195;52.528;5.704;2024-03-02T09:15:15;10.80;60.50
81800;DHT22;71195;52.528;5.704;2024-03-02T09:17:47;11.00;60.40
81800;DHT22;71195;52.528;5.704;2024-03-02T09:20:16;11.10;60.30
81800;DHT22;71195;52.528;5.704;2024-03-02T09:22:45;11.10;60.20
81800;DHT22;71195;52.528;5.704;2024-03-02T09:25:15;11.30;60.10
81800;DHT22;71195;52.528;5.704;2024-03-02T09:27:44;11.40;60.00
81800;DHT22;71195;52.528;5.704;2024-03-02T09:30:14;11.40;59.90
81800;DHT22;71195;52.528;5.704;2024-03-02T09:32:43;11.40;59.90
81800;DHT22;71195;52.528;5.704;2024-03-02T09:35:15;11.50;59.90
81800;DHT22;71195;52.528;5.704;2024-03-02T09:37:44;11.50;59.90
81800;DHT22;71195;52.528;5.704;2024-03-02T09:40:13;11.50;59.80
81800;DHT22;71195;52.528;5.704;2024-03-02T09:42:43;11.60;59.80
81800;DHT22;71195;52.528;5.704;2024-03-02T09:45:20;11.70;59.70
81800;DHT22;71195;52.528;5.704;2024-03-02T09:47:52;11.70;59.60
81800;DHT22;71195;52.528;5.704;2024-03-02T09:50:24;11.80;59.60
81800;DHT22;71195;52.528;5.704;2024-03-02T09:52:53;11.90;59.40
81800;DHT22;71195;52.528;5.704;2024-03-02T09:55:22;11.90;59.30
81800;DHT22;71195;52.528;5.704;2024-03-02T09:57:52;12.00;59.20
81800;DHT22;71195;52.528;5.704;2024-03-02T10:00:22;12.20;59.00
81800;DHT22;71195;52.528;5.704;2024-03-02T10:02:51;12.30;58.90
81800;DHT22;71195;52.528;5.704;2024-03-02T10:05:27;12.50;58.70
81800;DHT22;71195;52.528;5.704;2024-03-02T10:07:59;12.60;58.50
81800;DHT22;71195;52.528;5.704;2024-03-02T10:10:39;12.70;58.30
81800;DHT22;71195;52.528;5.704;2024-03-02T10:13:10;12.90;58.10
81800;DHT22;71195;52.528;5.704;2024-03-02T10:15:40;13.10;58.00
81800;DHT22;71195;52.528;5.704;2024-03-02T10:18:10;13.10;57.90
81800;DHT22;71195;52.528;5.704;2024-03-02T10:20:44;13.30;57.60
81800;DHT22;71195;52.528;5.704;2024-03-02T10:23:16;13.50;57.40
81800;DHT22;71195;52.528;5.704;2024-03-02T10:25:47;13.60;57.30
81800;DHT22;71195;52.528;5.704;2024-03-02T10:28:16;13.70;57.10
81800;DHT22;71195;52.528;5.704;2024-03-02T10:30:48;13.80;57.10
81800;DHT22;71195;52.528;5.704;2024-03-02T10:33:18;13.90;56.90
81800;DHT22;71195;52.528;5.704;2024-03-02T10:35:50;14.10;56.70
81800;DHT22;71195;52.528;5.704;2024-03-02T10:38:20;14.30;56.50
81800;DHT22;71195;52.528;5.704;2024-03-02T10:40:49;14.40;56.40
81800;DHT22;71195;52.528;5.704;2024-03-02T10:43:21;14.60;56.10
81800;DHT22;71195;52.528;5.704;2024-03-02T10:45:51;14.70;56.10
81800;DHT22;71195;52.528;5.704;2024-03-02T10:48:21;14.80;56.10
81800;DHT22;71195;52.528;5.704;2024-03-02T10:50:53;15.00;55.80
81800;DHT22;71195;52.528;5.704;2024-03-02T10:53:25;15.10;55.60
81800;DHT22;71195;52.528;5.704;2024-03-02T10:55:58;15.20;55.50
81800;DHT22;71195;52.528;5.704;2024-03-02T10:58:32;15.40;55.20
81800;DHT22;71195;52.528;5.704;2024-03-02T11:01:03;15.50;55.00
81800;DHT22;71195;52.528;5.704;2024-03-02T11:03:35;15.60;54.90
81800;DHT22;71195;52.528;5.704;2024-03-02T11:06:09;15.70;54.60
81800;DHT22;71195;52.528;5.704;2024-03-02T11:08:42;15.80;54.50
81800;DHT22;71195;52.528;5.704;2024-03-02T11:11:15;15.80;54.50
81800;DHT22;71195;52.528;5.704;2024-03-02T11:13:49;16.00;54.20
81800;DHT22;71195;52.528;5.704;2024-03-02T11:16:27;16.10;53.90
81800;DHT22;71195;52.528;5.704;2024-03-02T11:19:03;16.10;53.70
81800;DHT22;71195;52.528;5.704;2024-03-02T11:21:35;16.20;53.70
81800;DHT22;71195;52.528;5.704;2024-03-02T11:24:29;16.40;53.40
81800;DHT22;71195;52.528;5.704;2024-03-02T11:27:01;16.40;53.10
81800;DHT22;71195;52.528;5.704;2024-03-02T11:29:44;16.50;53.20
81800;DHT22;71195;52.528;5.704;2024-03-02T11:32:21;16.50;53.00
81800;DHT22;71195;52.528;5.704;2024-03-02T11:34:51;16.50;52.90
81800;DHT22;71195;52.528;5.704;2024-03-02T11:37:25;16.60;53.00
81800;DHT22;71195;52.528;5.704;2024-03-02T11:39:54;16.70;52.70
81800;DHT22;71195;52.528;5.704;2024-03-02T11:42:23;16.70;52.60
81800;DHT22;71195;52.528;5.704;2024-03-02T11:44:56;16.80;52.50
81800;DHT22;71195;52.528;5.704;2024-03-02T11:47:31;16.80;52.30
81800;DHT22;71195;52.528;5.704;2024-03-02T11:50:00;16.90;52.20
81800;DHT22;71195;52.528;5.704;2024-03-02T11:52:35;17.00;52.20
81800;DHT22;71195;52.528;5.704;2024-03-02T11:55:07;17.10;52.30
81800;DHT22;71195;52.528;5.704;2024-03-02T11:57:36;17.20;52.30
81800;DHT22;71195;52.528;5.704;2024-03-02T12:00:17;17.40;52.20
81800;DHT22;71195;52.528;5.704;2024-03-02T12:02:46;17.50;51.70
81800;DHT22;71195;52.528;5.704;2024-03-02T12:05:17;17.60;51.60
81800;DHT22;71195;52.528;5.704;2024-03-02T12:07:48;17.60;51.40
81800;DHT22;71195;52.528;5.704;2024-03-02T12:10:24;17.80;51.20
81800;DHT22;71195;52.528;5.704;2024-03-02T12:12:56;18.00;51.00
81800;DHT22;71195;52.528;5.704;2024-03-02T12:15:26;18.10;50.70
81800;DHT22;71195;52.528;5.704;2024-03-02T12:17:56;18.20;50.60
81800;DHT22;71195;52.528;5.704;2024-03-02T12:20:27;18.30;50.50
81800;DHT22;71195;52.528;5.704;2024-03-02T12:23:00;18.40;50.40
81800;DHT22;71195;52.528;5.704;2024-03-02T12:25:31;18.50;50.20
81800;DHT22;71195;52.528;5.704;2024-03-02T12:28:01;18.70;50.00
81800;DHT22;71195;52.528;5.704;2024-03-02T12:30:32;18.80;49.80
81800;DHT22;71195;52.528;5.704;2024-03-02T12:33:04;18.80;49.70
81800;DHT22;71195;52.528;5.704;2024-03-02T12:35:34;18.80;49.60
81800;DHT22;71195;52.528;5.704;2024-03-02T12:38:08;18.80;49.50
81800;DHT22;71195;52.528;5.704;2024-03-02T12:40:38;18.60;49.30
81800;DHT22;71195;52.528;5.704;2024-03-02T12:43:07;18.40;49.30
81800;DHT22;71195;52.528;5.704;2024-03-02T12:45:37;18.10;49.40
81800;DHT22;71195;52.528;5.704;2024-03-02T12:48:06;18.00;49.50
81800;DHT22;71195;52.528;5.704;2024-03-02T12:50:36;17.90;49.40
81800;DHT22;71195;52.528;5.704;2024-03-02T12:53:07;17.80;49.40
81800;DHT22;71195;52.528;5.704;2024-03-02T12:55:43;17.80;49.40
81800;DHT22;71195;52.528;5.704;2024-03-02T12:58:17;17.80;49.30
81800;DHT22;71195;52.528;5.704;2024-03-02T13:00:47;17.70;49.10
81800;DHT22;71195;52.528;5.704;2024-03-02T13:03:18;17.80;49.20
81800;DHT22;71195;52.528;5.704;2024-03-02T13:05:49;18.10;48.90
81800;DHT22;71195;52.528;5.704;2024-03-02T13:08:22;18.50;48.80
81800;DHT22;71195;52.528;5.704;2024-03-02T13:10:51;18.80;48.60
81800;DHT22;71195;52.528;5.704;2024-03-02T13:13:20;19.00;48.60
81800;DHT22;71195;52.528;5.704;2024-03-02T13:15:49;19.10;48.60
81800;DHT22;71195;52.528;5.704;2024-03-02T13:18:18;19.20;48.60
81800;DHT22;71195;52.528;5.704;2024-03-02T13:20:48;19.30;48.50
81800;DHT22;71195;52.528;5.704;2024-03-02T13:23:17;19.40;48.50
81800;DHT22;71195;52.528;5.704;2024-03-02T13:25:49;19.40;48.50
81800;DHT22;71195;52.528;5.704;2024-03-02T13:28:18;19.50;48.50
81800;DHT22;71195;52.528;5.704;2024-03-02T13:30:47;19.60;48.50
81800;DHT22;71195;52.528;5.704;2024-03-02T13:33:17;19.70;48.40
81800;DHT22;71195;52.528;5.704;2024-03-02T13:35:48;19.90;48.30
81800;DHT22;71195;52.528;5.704;2024-03-02T13:38:19;20.00;48.20
81800;DHT22;71195;52.528;5.704;2024-03-02T13:40:51;20.00;48.20
81800;DHT22;71195;52.528;5.704;2024-03-02T13:43:20;20.00;48.10
81800;DHT22;71195;52.528;5.704;2024-03-02T13:45:50;20.00;48.10
81800;DHT22;71195;52.528;5.704;2024-03-02T13:48:19;20.00;48.10
81800;DHT22;71195;52.528;5.704;2024-03-02T13:50:49;20.10;48.10
81800;DHT22;71195;52.528;5.704;2024-03-02T13:53:18;20.30;48.00
81800;DHT22;71195;52.528;5.704;2024-03-02T13:55:50;20.40;48.00
81800;DHT22;71195;52.528;5.704;2024-03-02T13:58:19;20.50;48.00
81800;DHT22;71195;52.528;5.704;2024-03-02T14:00:49;20.50;47.90
81800;DHT22;71195;52.528;5.704;2024-03-02T14:03:18;20.50;47.90
81800;DHT22;71195;52.528;5.704;2024-03-02T14:05:50;20.50;47.90
81800;DHT22;71195;52.528;5.704;2024-03-02T14:08:19;20.50;48.10
81800;DHT22;71195;52.528;5.704;2024-03-02T14:10:51;20.50;48.30
81800;DHT22;71195;52.528;5.704;2024-03-02T14:13:21;20.60;48.00
81800;DHT22;71195;52.528;5.704;2024-03-02T14:15:52;20.60;48.00
81800;DHT22;71195;52.528;5.704;2024-03-02T14:18:21;20.60;47.90
81800;DHT22;71195;52.528;5.704;2024-03-02T14:20:50;20.60;47.80
81800;DHT22;71195;52.528;5.704;2024-03-02T14:23:19;20.70;47.70
81800;DHT22;71195;52.528;5.704;2024-03-02T14:25:51;20.80;47.60
81800;DHT22;71195;52.528;5.704;2024-03-02T14:28:20;20.70;47.50
81800;DHT22;71195;52.528;5.704;2024-03-02T14:30:50;20.60;47.60
81800;DHT22;71195;52.528;5.704;2024-03-02T14:33:20;20.30;47.70
81800;DHT22;71195;52.528;5.704;2024-03-02T14:35:49;20.20;47.80
81800;DHT22;71195;52.528;5.704;2024-03-02T14:38:18;20.00;47.80
81800;DHT22;71195;52.528;5.704;2024-03-02T14:40:48;19.80;47.90
81800;DHT22;71195;52.528;5.704;2024-03-02T14:43:19;19.70;48.00
81800;DHT22;71195;52.528;5.704;2024-03-02T14:45:49;19.50;48.00
81800;DHT22;71195;52.528;5.704;2024-03-02T14:48:18;19.50;48.00
81800;DHT22;71195;52.528;5.704;2024-03-02T14:50:47;19.40;48.00
81800;DHT22;71195;52.528;5.704;2024-03-02T14:53:17;19.40;48.00
81800;DHT22;71195;52.528;5.704;2024-03-02T14:55:52;19.40;47.90
81800;DHT22;71195;52.528;5.704;2024-03-02T14:58:28;19.50;47.80
81800;DHT22;71195;52.528;5.704;2024-03-02T15:00:57;19.50;47.60
81800;DHT22;71195;52.528;5.704;2024-03-02T15:03:26;19.50;47.50
81800;DHT22;71195;52.528;5.704;2024-03-02T15:05:55;19.40;47.50
81800;DHT22;71195;52.528;5.704;2024-03-02T15:08:27;19.30;47.50
81800;DHT22;71195;52.528;5.704;2024-03-02T15:10:57;19.20;47.50
81800;DHT22;71195;52.528;5.704;2024-03-02T15:13:30;19.10;47.40
81800;DHT22;71195;52.528;5.704;2024-03-02T15:16:00;19.10;47.40
81800;DHT22;71195;52.528;5.704;2024-03-02T15:18:29;19.00;47.60
81800;DHT22;71195;52.528;5.704;2024-03-02T15:20:58;19.00;47.60
81800;DHT22;71195;52.528;5.704;2024-03-02T15:23:28;19.00;47.60
81800;DHT22;71195;52.528;5.704;2024-03-02T15:25:58;18.90;47.50
81800;DHT22;71195;52.528;5.704;2024-03-02T15:28:30;18.90;47.50
81800;DHT22;71195;52.528;5.704;2024-03-02T15:30:59;18.80;47.50
81800;DHT22;71195;52.528;5.704;2024-03-02T15:33:29;18.70;47.60
81800;DHT22;71195;52.528;5.704;2024-03-02T15:36:00;18.60;47.70
81800;DHT22;71195;52.528;5.704;2024-03-02T15:38:30;18.50;47.80
81800;DHT22;71195;52.528;5.704;2024-03-02T15:41:03;18.50;47.80
81800;DHT22;71195;52.528;5.704;2024-03-02T15:43:35;18.50;47.80
81800;DHT22;71195;52.528;5.704;2024-03-02T15:46:07;18.40;47.90
81800;DHT22;71195;52.528;5.704;2024-03-02T15:48:36;18.30;47.90
81800;DHT22;71195;52.528;5.704;2024-03-02T15:51:05;18.20;48.00
81800;DHT22;71195;52.528;5.704;2024-03-02T15:53:36;18.10;48.00
81800;DHT22;71195;52.528;5.704;2024-03-02T15:56:05;18.00;48.10